Terminal Aerodrome Forecast
Issued by NWS

Home | Current Version | Previous Version | Text Only | Print | Product List | Glossary On
Versions: 1 2 3 4 5 6 7 8 9 10 11 12 13
000
FTUS44 KLIX 020500
TAFMSY
TAF
KMSY 020525Z 0206/0306 14005KT P6SM BKN090 BKN250
     FM020900 16003KT P6SM BKN060
     FM021400 05004KT P6SM SCT035 BKN100
     FM021800 14007KT P6SM SCT035 BKN100 PROB30 0219/0224 VRB14G25KT
      2SM TSRA BKN030CB
     FM030100 16005KT P6SM BKN050=

USA.gov is the U.S. government's official web portal to all federal, state and local government web resources and services.